Flight Track Log - Related Links

Times and Time Zones

All times are in EDT time to prevent confusion due to time zone crossing. See the JBU462 flight status page for this flight to view local times or setup timezone preferences in your user account.

Time Position Orientation Groundspeed Altitude Reporting Facility
EDT Latitude Longitude Course Direction KTS MPH feet Rate Location/Type
12:42PM 18.4500 -65.9833 317° Northwest 150 173 1,200  Level San Juan Center
12:43PM 18.5000 -66.0000 342° North 230 265 2,200 1,884 Climbing San Juan Center
12:44PM 18.5333 -66.0667 298° West 280 322 5,000 2,926 Climbing San Juan Center
12:45PM 18.7603 -66.3102 317° Northwest  Level FlightAware Approximate
12:45PM 18.5833 -66.1333 308° West 280 322 8,100  Level San Juan Center
12:46PM 18.8415 -66.3915 317° Northwest  Level FlightAware Approximate
12:46PM 18.6500 -66.2000 317° Northwest 310 357 10,800  Level San Juan Center
12:47PM 18.9227 -66.4727 317° Northwest  Level FlightAware Approximate
12:47PM 18.7000 -66.2667 308° West 310 357 13,400  Level San Juan Center
12:48PM 18.7667 -66.3333 317° Northwest 310 357 16,200 2,350 Climbing San Juan Center
12:49PM 18.8167 -66.4000 308° West 320 368 18,100 1,934 Climbing San Juan Center
12:50PM 18.8667 -66.4833 302° West 320 368 20,100 1,884 Climbing San Juan Center
12:51PM 18.9167 -66.5500 308° West 310 357 21,900 1,650 Climbing San Juan Center
12:52PM 18.9333 -66.6500 280° West 320 368 23,400 1,600 Climbing San Juan Center
12:53PM 18.9333 -66.7500 270° West 340 391 25,100 1,488 Climbing San Juan Center
12:54PM 18.9833 -66.8500 298° West 340 391 26,400 1,289 Climbing San Juan Center
12:55PM 19.0167 -66.9333 293° West 340 391 27,700 950 Climbing San Juan Center
12:56PM 19.0833 -67.0167 310° West 380 437 28,300 397 Climbing San Juan Center
12:57PM 19.1667 -67.0667 330° Northwest 400 460 28,500 298 Climbing San Juan Center
12:58PM 19.2667 -67.1333 328° Northwest 430 495 28,900 650 Climbing San Juan Center
12:59PM 19.3833 -67.2000 332° Northwest 440 506 29,800 1,200 Climbing San Juan Center
01:00PM 19.4833 -67.2667 328° Northwest 440 506 31,300 1,091 Climbing San Juan Center
01:01PM 19.5833 -67.3333 328° Northwest 430 495 32,000 694 Climbing San Juan Center
01:02PM 19.7000 -67.4000 332° Northwest 440 506 32,700 992 Climbing San Juan Center
01:03PM 19.8000 -67.4667 328° Northwest 430 495 34,000 645 Climbing San Juan Center
01:04PM 19.9000 -67.5333 328° Northwest 430 495 34,000  Level San Juan Center
01:05PM 20.0000 -67.6000 328° Northwest 430 495 34,000  Level San Juan Center
01:07PM 20.1892 -67.7153 330° Northwest 439 505 34,000  Level Miami Center
01:08PM 20.3008 -67.7761 333° Northwest 446 513 34,000  Level Miami Center
01:09PM 20.4006 -67.8447 327° Northwest 441 507 34,000  Level Miami Center
01:10PM 20.5083 -67.9106 330° Northwest 446 513 34,000  Level Miami Center
01:11PM 20.6272 -67.9514 342° North 446 513 34,000  Level Miami Center
01:12PM 20.7517 -67.9808 348° North 452 520 34,000  Level Miami Center
01:13PM 20.8764 -68.0125 347° North 452 520 34,000  Level Miami Center
01:14PM 21.0008 -68.0444 347° North 460 529 34,000  Level Miami Center
01:15PM 21.1236 -68.0764 346° North 460 529 34,000  Level Miami Center
01:16PM 21.2461 -68.1083 346° North 460 529 34,000  Level Miami Center
01:17PM 21.3644 -68.1383 347° North 449 517 34,000  Level Miami Center
01:18PM 21.4889 -68.1703 347° North 443 510 34,000  Level Miami Center
01:19PM 21.6072 -68.2006 347° North 443 510 34,000  Level Miami Center
01:20PM 21.7278 -68.2328 346° North 443 510 34,000  Level Miami Center
01:21PM 21.8483 -68.2650 346° North 443 510 34,000  Level Miami Center
01:22PM 21.9689 -68.2953 347° North 448 516 34,000  Level Miami Center
01:23PM 22.0914 -68.3253 347° North 443 510 34,000  Level Miami Center
01:24PM 22.2139 -68.3578 346° North 438 504 34,000  Level Miami Center
01:25PM 22.3236 -68.3842 347° North 443 510 34,000  Level Miami Center
01:26PM 22.4444 -68.4189 345° North 443 510 34,000  Level Miami Center
01:27PM 22.5692 -68.4511 347° North 443 510 34,000  Level Miami Center
01:28PM 22.6878 -68.4839 346° North 434 499 34,000  Level Miami Center
01:29PM 22.7994 -68.5106 348° North 434 499 34,000  Level Miami Center
01:30PM 22.9181 -68.5411 347° North 434 499 34,000  Level Miami Center
01:31PM 23.0386 -68.5761 345° North 434 499 34,000  Level Miami Center
01:32PM 23.1483 -68.6006 348° North 424 488 34,000  Level Miami Center
01:33PM 23.2692 -68.6333 346° North 436 502 34,000  Level Miami Center
01:34PM 23.3897 -68.6661 346° North 435 501 34,000  Level Miami Center
01:35PM 23.5039 -68.6950 347° North 435 501 34,000  Level Miami Center
01:36PM 23.6244 -68.7281 346° North 435 501 34,000  Level Miami Center
01:37PM 23.7386 -68.7592 346° North 435 501 34,000  Level Miami Center
01:38PM 23.8550 -68.7903 346° North 427 491 34,000  Level Miami Center
01:39PM 23.9736 -68.8211 347° North 427 491 34,000  Level Miami Center
01:40PM 24.0875 -68.8503 347° North 427 491 34,000  Level Miami Center
01:41PM 24.2083 -68.8833 346° North 427 491 34,000  Level Miami Center
01:42PM 24.3247 -68.9147 346° North 427 491 34,000  Level Miami Center
01:43PM 24.4408 -68.9436 347° North 427 491 34,000  Level Miami Center
01:44PM 24.5606 -68.9586 353° North 432 497 34,000  Level Miami Center
01:45PM 24.6833 -68.9919 346° North 432 497 34,000  Level Miami Center
01:46PM 24.7950 -69.0144 350° North 426 490 34,000  Level Miami Center
01:47PM 24.9006 -69.0397 348° North 421 484 34,000  Level Miami Center
01:48PM 25.0167 -69.0667 348° North 421 484 34,000  Level Miami Center
01:51PM 25.0000 -69.1000 349° North 419 482 34,000  Level New York Oceanic (ODAPS)
02:02PM 26.7167 -69.4500 349° North 419 482 34,000  Level New York Oceanic (ODAPS)
02:34PM 30.4000 -70.2667 349° North 415 478 34,000  Level New York Oceanic (ODAPS)
03:26PM 36.4256 -71.7058 348° North 434 499 34,000  Level New York Center
03:27PM 36.5094 -71.7568 348° North 415 478 34,000  Level FlightAware Transoceanic
03:27PM 36.5358 -71.7356 348° North 420 483 34,000  Level New York Center
03:28PM 36.6224 -71.7865 348° North 415 478 34,000  Level FlightAware Transoceanic
03:28PM 36.6442 -71.7656 347° North 400 460 34,000  Level New York Center
03:29PM 36.7354 -71.8163 348° North 415 478 34,000 -100 Level FlightAware Transoceanic
03:29PM 36.7461 -71.7953 347° North 385 443 33,900  Descending New York Center
03:30PM 36.8483 -71.8462 348° North 415 478 34,000 100 Climbing FlightAware Transoceanic
03:30PM 36.8647 -71.8075 355° North 398 458 34,000  Level New York Center
03:31PM 36.9817 -71.8222 354° North 404 465 34,000  Level New York Center
03:32PM 37.0897 -71.8392 353° North 404 465 34,000  Level New York Center
03:33PM 37.2067 -71.8514 355° North 410 472 34,000  Level New York Center
03:34PM 37.3150 -71.8661 354° North 411 473 34,000  Level New York Center
03:35PM 37.4378 -71.8811 354° North 411 473 34,000  Level New York Center
03:36PM 37.5419 -71.8931 355° North 399 459 34,000  Level New York Center
03:37PM 37.6506 -71.9000 357° North 390 449 34,000  Level New York Center
03:38PM 37.7586 -71.9203 352° North 378 435 34,000  Level New York Center
03:39PM 37.8692 -71.9272 357° North 383 441 34,000  Level New York Center
03:40PM 37.9817 -71.9369 356° North 388 447 34,000  Level New York Center
03:41PM 38.0922 -71.9467 356° North 393 452 34,000  Level New York Center
03:42PM 38.2003 -71.9750 348° North 393 452 34,000  Level New York Center
03:43PM 38.3108 -71.9822 357° North 393 452 34,000  Level New York Center
03:44PM 38.4211 -71.9972 354° North 393 452 34,000  Level New York Center
03:45PM 38.5317 -72.0072 356° North 393 452 34,000  Level New York Center
03:46PM 38.6400 -72.0197 355° North 393 452 34,000  Level New York Center
03:47PM 38.7481 -72.0322 355° North 388 447 34,000  Level New York Center
03:48PM 38.8586 -72.0475 354° North 388 447 34,000  Level New York Center
03:49PM 38.9667 -72.0631 354° North 388 447 34,000  Level New York Center
03:50PM 39.0731 -72.0783 354° North 388 447 34,000  Level New York Center
03:51PM 39.1811 -72.0911 355° North 388 447 34,000  Level New York Center
03:52PM 39.2894 -72.1011 356° North 388 447 34,000  Level New York Center
03:53PM 39.3956 -72.1167 354° North 388 447 34,000  Level New York Center
03:55PM 39.6111 -72.1464 354° North 391 450 34,000  Level Boston Center
03:56PM 39.7175 -72.1606 354° North 390 449 34,000  Level Boston Center
03:57PM 39.8236 -72.1736 355° North 388 447 34,000 -145 Level Boston Center
03:58PM 39.9289 -72.1875 354° North 385 443 33,700 -726 Descending Boston Center
03:59PM 40.0344 -72.2008 354° North 384 442 32,500 -1,736 Descending Boston Center
04:00PM 40.1419 -72.2150 354° North 390 449 30,200 -2,112 Descending Boston Center
04:02PM 40.2453 -72.2281 354° North 391 450 28,100 -1,645 Descending Boston Center
04:03PM 40.3689 -72.2442 354° North 379 436 26,800 -1,140 Descending Boston Center
04:04PM 40.4725 -72.2575 354° North 377 434 25,800 -1,016 Descending Boston Center
04:05PM 40.5731 -72.2708 354° North 370 426 24,700 -968 Descending Boston Center
04:06PM 40.6717 -72.2839 354° North 362 417 23,800 -942 Descending Boston Center
04:07PM 40.7697 -72.2964 354° North 363 418 22,800 -968 Descending Boston Center
04:08PM 40.8733 -72.2733 10° North 381 438 21,800 -968 Descending Boston Center
04:09PM 40.9622 -72.1872 36° Northeast 393 452 20,800 -1,041 Descending Boston Center
04:10PM 41.0672 -72.0831 37° Northeast 387 445 19,700 -871 Descending Boston Center
04:11PM 41.1531 -72.0000 36° Northeast 383 441 19,000 -339 Descending Boston Center
04:12PM 41.2408 -71.9131 37° Northeast 383 441 19,000 -393 Level Boston Center
04:13PM 41.3253 -71.8294 37° Northeast 381 438 18,200 -1,033 Descending Boston Center
04:14PM 41.4147 -71.7403 37° Northeast 379 436 16,900 -1,452 Descending Boston Center
04:15PM 41.4939 -71.6611 37° Northeast 362 417 15,200 -1,561 Descending Boston Center
04:16PM 41.5692 -71.5856 37° Northeast 345 397 13,700 -1,645 Descending Boston Center
04:17PM 41.6458 -71.5094 37° Northeast 324 373 11,800 -1,296 Descending Boston Center
04:18PM 41.7156 -71.4375 38° Northeast 322 371 11,000 -393 Descending Boston Center
04:19PM 41.7861 -71.3661 37° Northeast 301 346 11,000 -246 Level Boston Center
04:20PM 41.8553 -71.3217 26° Northeast 278 320 10,500 -1,525 Descending Boston Center
04:21PM 41.9317 -71.2994 12° North 263 303 7,900 -2,754 Descending Boston Center
04:22PM 42.0031 -71.2839 North 262 302 4,900 -1,887 Descending Boston Center
04:23PM 42.0758 -71.2722 North 265 305 4,000 -435 Descending Boston Center
04:24PM 42.1369 -71.2264 29° Northeast 246 283 4,000  Level Boston Center
04:25PM 42.1892 -71.1719 38° Northeast 240 276 4,000 -295 Level Boston Center
04:26PM 42.2300 -71.1194 44° Northeast 200 230 3,400 -934 Descending Boston Center
04:27PM 42.2672 -71.0611 49° Northeast 190 219 2,100 -1,056 Descending Boston Center
04:28PM 42.3075 -71.0383 23° Northeast 173 199 1,200 -864 Descending Boston Center
04:29PM 42.3456 -71.0208 19° North 154 177 300 -885 Descending Boston Center

Login

Don't have an account? Register now (free) for customized features, flight alerts, and more!